sensor_id;sensor_type;location;lat;lon;timestamp;pressure;altitude;pressure_sealevel;temperature;humidity
22025;BME280;11176;51.448;6.650;2023-03-24T00:00:47;45430.22;;;-141.29;100.00
22025;BME280;11176;51.448;6.650;2023-03-24T00:03:13;45430.22;;;-141.29;100.00
22025;BME280;11176;51.448;6.650;2023-03-24T00:05:42;45438.19;;;-141.29;100.00
22025;BME280;11176;51.448;6.650;2023-03-24T00:08:10;45426.22;;;-141.29;100.00
22025;BME280;11176;51.448;6.650;2023-03-24T00:10:36;45430.22;;;-141.29;100.00
22025;BME280;11176;51.448;6.650;2023-03-24T00:13:03;45438.19;;;-141.29;100.00
22025;BME280;11176;51.448;6.650;2023-03-24T00:15:29;45442.19;;;-141.29;100.00
22025;BME280;11176;51.448;6.650;2023-03-24T00:17:56;45436.19;;;-141.29;100.00
22025;BME280;11176;51.448;6.650;2023-03-24T00:20:24;45438.19;;;-141.29;100.00
22025;BME280;11176;51.448;6.650;2023-03-24T00:22:53;45450.19;;;-141.29;100.00
22025;BME280;11176;51.448;6.650;2023-03-24T00:25:26;45422.22;;;-141.29;100.00
22025;BME280;11176;51.448;6.650;2023-03-24T00:27:54;45432.19;;;-141.29;100.00
22025;BME280;11176;51.448;6.650;2023-03-24T00:30:21;45430.22;;;-141.29;100.00
22025;BME280;11176;51.448;6.650;2023-03-24T00:32:50;45420.22;;;-141.29;100.00
22025;BME280;11176;51.448;6.650;2023-03-24T00:35:17;45442.19;;;-141.29;100.00
22025;BME280;11176;51.448;6.650;2023-03-24T00:37:44;45446.19;;;-141.29;100.00
22025;BME280;11176;51.448;6.650;2023-03-24T00:40:14;45446.19;;;-141.29;100.00
22025;BME280;11176;51.448;6.650;2023-03-24T00:42:43;45434.19;;;-141.29;100.00
22025;BME280;11176;51.448;6.650;2023-03-24T00:45:15;45430.22;;;-141.29;100.00
22025;BME280;11176;51.448;6.650;2023-03-24T00:47:43;45442.19;;;-141.29;100.00
22025;BME280;11176;51.448;6.650;2023-03-24T00:50:17;45430.22;;;-141.29;100.00
22025;BME280;11176;51.448;6.650;2023-03-24T00:52:45;45426.22;;;-141.29;100.00
22025;BME280;11176;51.448;6.650;2023-03-24T00:55:14;45438.19;;;-141.29;100.00
22025;BME280;11176;51.448;6.650;2023-03-24T00:57:43;45426.22;;;-141.29;100.00
22025;BME280;11176;51.448;6.650;2023-03-24T01:00:19;45438.19;;;-141.29;100.00
22025;BME280;11176;51.448;6.650;2023-03-24T01:02:47;45442.19;;;-141.29;100.00
22025;BME280;11176;51.448;6.650;2023-03-24T01:05:20;45424.22;;;-141.29;100.00
22025;BME280;11176;51.448;6.650;2023-03-24T01:07:47;45452.19;;;-141.29;100.00
22025;BME280;11176;51.448;6.650;2023-03-24T01:10:20;45426.22;;;-141.29;100.00
22025;BME280;11176;51.448;6.650;2023-03-24T01:12:56;45426.22;;;-141.29;100.00
22025;BME280;11176;51.448;6.650;2023-03-24T01:15:27;45450.19;;;-141.29;100.00
22025;BME280;11176;51.448;6.650;2023-03-24T01:17:55;45434.19;;;-141.29;100.00
22025;BME280;11176;51.448;6.650;2023-03-24T01:20:23;45436.19;;;-141.29;100.00
22025;BME280;11176;51.448;6.650;2023-03-24T01:22:50;45450.19;;;-141.29;100.00
22025;BME280;11176;51.448;6.650;2023-03-24T01:25:21;45434.19;;;-141.29;100.00
22025;BME280;11176;51.448;6.650;2023-03-24T01:27:49;45426.22;;;-141.29;100.00
22025;BME280;11176;51.448;6.650;2023-03-24T01:30:19;45438.19;;;-141.29;100.00
22025;BME280;11176;51.448;6.650;2023-03-24T01:32:46;45430.22;;;-141.29;100.00
22025;BME280;11176;51.448;6.650;2023-03-24T01:35:13;45440.19;;;-141.29;100.00
22025;BME280;11176;51.448;6.650;2023-03-24T01:37:40;45426.22;;;-141.29;100.00
22025;BME280;11176;51.448;6.650;2023-03-24T01:40:07;45420.22;;;-141.29;100.00
22025;BME280;11176;51.448;6.650;2023-03-24T01:42:38;45424.22;;;-141.29;100.00
22025;BME280;11176;51.448;6.650;2023-03-24T01:48:13;45448.19;;;-141.29;100.00
22025;BME280;11176;51.448;6.650;2023-03-24T01:50:44;45440.19;;;-141.29;100.00
22025;BME280;11176;51.448;6.650;2023-03-24T01:53:12;45440.19;;;-141.29;100.00
22025;BME280;11176;51.448;6.650;2023-03-24T01:55:39;45430.22;;;-141.29;100.00
22025;BME280;11176;51.448;6.650;2023-03-24T01:58:07;45442.19;;;-141.29;100.00
22025;BME280;11176;51.448;6.650;2023-03-24T02:00:48;45440.19;;;-141.29;100.00
22025;BME280;11176;51.448;6.650;2023-03-24T02:03:45;45434.19;;;-141.29;100.00
22025;BME280;11176;51.448;6.650;2023-03-24T02:06:13;45442.19;;;-141.29;100.00
22025;BME280;11176;51.448;6.650;2023-03-24T02:08:46;45430.22;;;-141.29;100.00
22025;BME280;11176;51.448;6.650;2023-03-24T02:11:13;45436.19;;;-141.29;100.00
22025;BME280;11176;51.448;6.650;2023-03-24T02:13:49;45446.19;;;-141.29;100.00
22025;BME280;11176;51.448;6.650;2023-03-24T02:16:29;45458.19;;;-141.29;100.00
22025;BME280;11176;51.448;6.650;2023-03-24T02:25:14;45426.22;;;-141.29;100.00
22025;BME280;11176;51.448;6.650;2023-03-24T02:28:00;45426.22;;;-141.29;100.00
22025;BME280;11176;51.448;6.650;2023-03-24T02:42:16;45438.19;;;-141.29;100.00
22025;BME280;11176;51.448;6.650;2023-03-24T02:45:11;45434.19;;;-141.29;100.00
22025;BME280;11176;51.448;6.650;2023-03-24T02:48:14;45426.22;;;-141.29;100.00
22025;BME280;11176;51.448;6.650;2023-03-24T02:50:51;45454.19;;;-141.29;100.00
22025;BME280;11176;51.448;6.650;2023-03-24T02:53:33;45434.19;;;-141.29;100.00
22025;BME280;11176;51.448;6.650;2023-03-24T02:56:39;45434.19;;;-141.29;100.00
22025;BME280;11176;51.448;6.650;2023-03-24T02:59:34;45430.22;;;-141.29;100.00
22025;BME280;11176;51.448;6.650;2023-03-24T03:02:19;45440.19;;;-141.29;100.00
22025;BME280;11176;51.448;6.650;2023-03-24T03:05:04;45418.22;;;-141.29;100.00
22025;BME280;11176;51.448;6.650;2023-03-24T03:07:33;45438.19;;;-141.29;100.00
22025;BME280;11176;51.448;6.650;2023-03-24T03:10:10;45426.22;;;-141.29;100.00
22025;BME280;11176;51.448;6.650;2023-03-24T03:12:40;45418.22;;;-141.29;100.00
22025;BME280;11176;51.448;6.650;2023-03-24T03:15:13;45438.19;;;-141.29;100.00
22025;BME280;11176;51.448;6.650;2023-03-24T03:17:48;45414.22;;;-141.29;100.00
22025;BME280;11176;51.448;6.650;2023-03-24T03:20:22;45410.22;;;-141.29;100.00
22025;BME280;11176;51.448;6.650;2023-03-24T03:22:58;45426.22;;;-141.29;100.00
22025;BME280;11176;51.448;6.650;2023-03-24T03:25:30;45410.22;;;-141.29;100.00
22025;BME280;11176;51.448;6.650;2023-03-24T03:28:00;45426.22;;;-141.29;100.00
22025;BME280;11176;51.448;6.650;2023-03-24T03:30:34;45426.22;;;-141.29;100.00
22025;BME280;11176;51.448;6.650;2023-03-24T03:33:07;45392.22;;;-141.29;100.00
22025;BME280;11176;51.448;6.650;2023-03-24T03:35:38;45412.22;;;-141.29;100.00
22025;BME280;11176;51.448;6.650;2023-03-24T03:38:19;45416.22;;;-141.29;100.00
22025;BME280;11176;51.448;6.650;2023-03-24T03:40:54;45416.22;;;-141.29;100.00
22025;BME280;11176;51.448;6.650;2023-03-24T03:43:26;45414.22;;;-141.29;100.00
22025;BME280;11176;51.448;6.650;2023-03-24T03:45:53;45430.22;;;-141.29;100.00
22025;BME280;11176;51.448;6.650;2023-03-24T03:48:27;45416.22;;;-141.29;100.00
22025;BME280;11176;51.448;6.650;2023-03-24T03:50:55;45426.22;;;-141.29;100.00
22025;BME280;11176;51.448;6.650;2023-03-24T03:53:49;45398.22;;;-141.29;100.00
22025;BME280;11176;51.448;6.650;2023-03-24T03:56:23;45402.22;;;-141.29;100.00
22025;BME280;11176;51.448;6.650;2023-03-24T03:59:33;45418.22;;;-141.29;100.00
22025;BME280;11176;51.448;6.650;2023-03-24T04:02:41;45418.22;;;-141.29;100.00
22025;BME280;11176;51.448;6.650;2023-03-24T04:05:35;45398.22;;;-141.29;100.00
22025;BME280;11176;51.448;6.650;2023-03-24T04:08:18;45398.22;;;-141.29;100.00
22025;BME280;11176;51.448;6.650;2023-03-24T04:14:09;45422.22;;;-141.29;100.00
22025;BME280;11176;51.448;6.650;2023-03-24T04:25:56;45422.22;;;-141.29;100.00
22025;BME280;11176;51.448;6.650;2023-03-24T04:28:49;45430.22;;;-141.29;100.00
22025;BME280;11176;51.448;6.650;2023-03-24T04:31:43;45416.22;;;-141.29;100.00
22025;BME280;11176;51.448;6.650;2023-03-24T04:37:07;45430.22;;;-141.29;100.00
22025;BME280;11176;51.448;6.650;2023-03-24T04:39:47;45420.22;;;-141.29;100.00
22025;BME280;11176;51.448;6.650;2023-03-24T04:42:19;45414.22;;;-141.29;100.00
22025;BME280;11176;51.448;6.650;2023-03-24T04:44:49;45420.22;;;-141.29;100.00
22025;BME280;11176;51.448;6.650;2023-03-24T04:47:49;45434.19;;;-141.29;100.00
22025;BME280;11176;51.448;6.650;2023-03-24T04:50:38;45422.22;;;-141.29;97.03
22025;BME280;11176;51.448;6.650;2023-03-24T04:53:13;45436.19;;;-141.29;94.97
22025;BME280;11176;51.448;6.650;2023-03-24T04:58:36;45432.19;;;-141.29;93.23
22025;BME280;11176;51.448;6.650;2023-03-24T05:01:03;45432.19;;;-141.29;93.00
22025;BME280;11176;51.448;6.650;2023-03-24T05:03:31;45418.22;;;-141.29;93.60
22025;BME280;11176;51.448;6.650;2023-03-24T05:05:57;45442.19;;;-141.29;94.06
22025;BME280;11176;51.448;6.650;2023-03-24T05:08:24;45438.19;;;-141.29;93.81
22025;BME280;11176;51.448;6.650;2023-03-24T05:10:51;45432.19;;;-141.29;94.02
22025;BME280;11176;51.448;6.650;2023-03-24T05:13:18;45440.19;;;-141.29;93.75
22025;BME280;11176;51.448;6.650;2023-03-24T05:15:52;45438.19;;;-141.29;93.38
22025;BME280;11176;51.448;6.650;2023-03-24T05:18:26;45436.19;;;-141.29;89.31
22025;BME280;11176;51.448;6.650;2023-03-24T05:20:55;45422.22;;;-141.29;88.99
22025;BME280;11176;51.448;6.650;2023-03-24T05:23:21;45450.19;;;-141.29;88.50
22025;BME280;11176;51.448;6.650;2023-03-24T05:25:48;45442.19;;;-141.29;88.47
22025;BME280;11176;51.448;6.650;2023-03-24T05:28:17;45450.19;;;-141.29;88.52
22025;BME280;11176;51.448;6.650;2023-03-24T05:30:46;45448.19;;;-141.29;88.23
22025;BME280;11176;51.448;6.650;2023-03-24T05:33:29;45448.19;;;-141.29;88.52
22025;BME280;11176;51.448;6.650;2023-03-24T05:35:57;45462.19;;;-141.29;88.56
22025;BME280;11176;51.448;6.650;2023-03-24T05:38:24;45466.19;;;-141.29;86.90
22025;BME280;11176;51.448;6.650;2023-03-24T05:40:59;45462.19;;;-141.29;86.82
22025;BME280;11176;51.448;6.650;2023-03-24T05:43:31;45450.19;;;-141.29;86.02
22025;BME280;11176;51.448;6.650;2023-03-24T05:46:08;45478.16;;;-141.29;85.45
22025;BME280;11176;51.448;6.650;2023-03-24T05:48:35;45460.19;;;-141.29;85.00
22025;BME280;11176;51.448;6.650;2023-03-24T05:51:18;45470.19;;;-141.29;84.66
22025;BME280;11176;51.448;6.650;2023-03-24T05:53:50;45468.19;;;-141.29;84.66
22025;BME280;11176;51.448;6.650;2023-03-24T05:56:21;45462.19;;;-141.29;84.45
22025;BME280;11176;51.448;6.650;2023-03-24T05:59:08;45470.19;;;-141.29;84.31
22025;BME280;11176;51.448;6.650;2023-03-24T06:01:53;45480.16;;;-141.29;84.07
22025;BME280;11176;51.448;6.650;2023-03-24T06:04:37;45458.19;;;-141.29;84.27
22025;BME280;11176;51.448;6.650;2023-03-24T06:07:11;45482.16;;;-141.29;84.49
22025;BME280;11176;51.448;6.650;2023-03-24T06:09:41;45480.16;;;-141.29;84.49
22025;BME280;11176;51.448;6.650;2023-03-24T06:12:09;45486.16;;;-141.29;84.80
22025;BME280;11176;51.448;6.650;2023-03-24T06:14:42;45452.19;;;-141.29;84.60
22025;BME280;11176;51.448;6.650;2023-03-24T06:17:11;45470.19;;;-141.29;84.47
22025;BME280;11176;51.448;6.650;2023-03-24T06:19:44;45486.16;;;-141.29;84.69
22025;BME280;11176;51.448;6.650;2023-03-24T06:22:23;45464.19;;;-141.29;85.16
22025;BME280;11176;51.448;6.650;2023-03-24T06:24:49;45466.19;;;-141.29;85.58
22025;BME280;11176;51.448;6.650;2023-03-24T06:27:16;45478.16;;;-141.29;86.73
22025;BME280;11176;51.448;6.650;2023-03-24T06:29:44;45480.16;;;-141.29;86.81
22025;BME280;11176;51.448;6.650;2023-03-24T06:32:12;45478.16;;;-141.29;87.39
22025;BME280;11176;51.448;6.650;2023-03-24T06:34:42;45466.19;;;-141.29;87.32
22025;BME280;11176;51.448;6.650;2023-03-24T06:37:33;45492.16;;;-141.29;87.48
22025;BME280;11176;51.448;6.650;2023-03-24T06:40:03;45464.19;;;-141.29;86.81
22025;BME280;11176;51.448;6.650;2023-03-24T06:42:40;45466.19;;;-141.29;87.25
22025;BME280;11176;51.448;6.650;2023-03-24T06:45:08;45476.16;;;-141.29;86.37
22025;BME280;11176;51.448;6.650;2023-03-24T06:47:34;45482.16;;;-141.29;86.49
22025;BME280;11176;51.448;6.650;2023-03-24T06:50:01;45490.16;;;-141.29;85.81
22025;BME280;11176;51.448;6.650;2023-03-24T06:52:28;45468.19;;;-141.29;85.73
22025;BME280;11176;51.448;6.650;2023-03-24T06:54:55;45474.16;;;-141.29;85.53
22025;BME280;11176;51.448;6.650;2023-03-24T06:57:25;45466.19;;;-141.29;85.73
22025;BME280;11176;51.448;6.650;2023-03-24T07:00:11;45458.19;;;-141.29;85.99
22025;BME280;11176;51.448;6.650;2023-03-24T07:02:53;45492.16;;;-141.29;85.06
22025;BME280;11176;51.448;6.650;2023-03-24T07:05:21;45490.16;;;-141.29;85.42
22025;BME280;11176;51.448;6.650;2023-03-24T07:07:48;45466.19;;;-141.29;85.59
22025;BME280;11176;51.448;6.650;2023-03-24T07:10:38;45472.16;;;-141.29;85.13
22025;BME280;11176;51.448;6.650;2023-03-24T07:13:05;45466.19;;;-141.29;85.27
22025;BME280;11176;51.448;6.650;2023-03-24T07:15:34;45484.16;;;-141.29;84.79
22025;BME280;11176;51.448;6.650;2023-03-24T07:18:02;45476.16;;;-141.29;84.64
22025;BME280;11176;51.448;6.650;2023-03-24T07:20:41;45492.16;;;-141.29;84.14
22025;BME280;11176;51.448;6.650;2023-03-24T07:23:13;45458.19;;;-141.29;84.16
22025;BME280;11176;51.448;6.650;2023-03-24T07:25:57;45476.16;;;-141.29;83.07
22025;BME280;11176;51.448;6.650;2023-03-24T07:28:53;45484.16;;;-141.29;83.36
22025;BME280;11176;51.448;6.650;2023-03-24T07:31:34;45474.16;;;-141.29;82.76
22025;BME280;11176;51.448;6.650;2023-03-24T07:34:07;45456.19;;;-141.29;82.52
22025;BME280;11176;51.448;6.650;2023-03-24T07:36:36;45486.16;;;-141.29;82.94
22025;BME280;11176;51.448;6.650;2023-03-24T07:39:05;45458.19;;;-141.29;83.07
22025;BME280;11176;51.448;6.650;2023-03-24T07:41:33;45468.19;;;-141.29;82.96
22025;BME280;11176;51.448;6.650;2023-03-24T07:44:05;45466.19;;;-141.29;82.26
22025;BME280;11176;51.448;6.650;2023-03-24T07:46:35;45462.19;;;-141.29;82.67
22025;BME280;11176;51.448;6.650;2023-03-24T07:49:02;45470.19;;;-141.29;83.29
22025;BME280;11176;51.448;6.650;2023-03-24T07:51:51;45448.19;;;-141.29;82.63
22025;BME280;11176;51.448;6.650;2023-03-24T07:54:20;45462.19;;;-141.29;82.17
22025;BME280;11176;51.448;6.650;2023-03-24T07:56:47;45454.19;;;-141.29;81.34
22025;BME280;11176;51.448;6.650;2023-03-24T07:59:14;45454.19;;;-141.29;81.75
22025;BME280;11176;51.448;6.650;2023-03-24T08:02:03;45470.19;;;-141.29;81.49
22025;BME280;11176;51.448;6.650;2023-03-24T08:04:50;45448.19;;;-141.29;81.29
22025;BME280;11176;51.448;6.650;2023-03-24T08:07:47;45446.19;;;-141.29;80.46
22025;BME280;11176;51.448;6.650;2023-03-24T08:10:23;45444.19;;;-141.29;80.66
22025;BME280;11176;51.448;6.650;2023-03-24T08:12:50;45474.16;;;-141.29;81.10
22025;BME280;11176;51.448;6.650;2023-03-24T08:15:17;45460.19;;;-141.29;81.27
22025;BME280;11176;51.448;6.650;2023-03-24T08:17:44;45452.19;;;-141.29;81.02
22025;BME280;11176;51.448;6.650;2023-03-24T08:20:12;45438.19;;;-141.29;81.47
22025;BME280;11176;51.448;6.650;2023-03-24T08:22:41;45446.19;;;-141.29;82.22
22025;BME280;11176;51.448;6.650;2023-03-24T08:25:09;45458.19;;;-141.29;81.54
22025;BME280;11176;51.448;6.650;2023-03-24T08:27:37;45462.19;;;-141.29;82.04
22025;BME280;11176;51.448;6.650;2023-03-24T08:30:06;45458.19;;;-141.29;82.32
22025;BME280;11176;51.448;6.650;2023-03-24T08:32:34;45458.19;;;-141.29;81.80
22025;BME280;11176;51.448;6.650;2023-03-24T08:35:01;45440.19;;;-141.29;81.47
22025;BME280;11176;51.448;6.650;2023-03-24T08:37:30;45446.19;;;-141.29;81.86
22025;BME280;11176;51.448;6.650;2023-03-24T08:39:56;45462.19;;;-141.29;82.34
22025;BME280;11176;51.448;6.650;2023-03-24T08:42:24;45446.19;;;-141.29;81.89
22025;BME280;11176;51.448;6.650;2023-03-24T08:44:51;45450.19;;;-141.29;81.63
22025;BME280;11176;51.448;6.650;2023-03-24T08:47:18;45454.19;;;-141.29;81.55
22025;BME280;11176;51.448;6.650;2023-03-24T08:49:44;45452.19;;;-141.29;81.63
22025;BME280;11176;51.448;6.650;2023-03-24T08:52:11;45450.19;;;-141.29;81.01
22025;BME280;11176;51.448;6.650;2023-03-24T08:54:37;45458.19;;;-141.29;80.45
22025;BME280;11176;51.448;6.650;2023-03-24T08:57:04;45466.19;;;-141.29;81.34
22025;BME280;11176;51.448;6.650;2023-03-24T08:59:30;45434.19;;;-141.29;80.06
22025;BME280;11176;51.448;6.650;2023-03-24T09:01:57;45426.22;;;-141.29;80.22
22025;BME280;11176;51.448;6.650;2023-03-24T09:04:23;45438.19;;;-141.29;79.82
22025;BME280;11176;51.448;6.650;2023-03-24T09:06:50;45448.19;;;-141.29;78.61
22025;BME280;11176;51.448;6.650;2023-03-24T09:09:18;45450.19;;;-141.29;77.07
22025;BME280;11176;51.448;6.650;2023-03-24T09:11:45;45438.19;;;-141.29;77.86
22025;BME280;11176;51.448;6.650;2023-03-24T09:14:11;45454.19;;;-141.29;76.82
22025;BME280;11176;51.448;6.650;2023-03-24T09:16:38;45438.19;;;-141.29;77.13
22025;BME280;11176;51.448;6.650;2023-03-24T09:19:05;45438.19;;;-141.29;76.72
22025;BME280;11176;51.448;6.650;2023-03-24T09:21:32;45434.19;;;-141.29;76.18
22025;BME280;11176;51.448;6.650;2023-03-24T09:23:59;45420.22;;;-141.29;74.94
22025;BME280;11176;51.448;6.650;2023-03-24T09:26:26;45428.22;;;-141.29;75.86
22025;BME280;11176;51.448;6.650;2023-03-24T09:28:52;45430.22;;;-141.29;76.78
22025;BME280;11176;51.448;6.650;2023-03-24T09:31:18;45410.22;;;-141.29;75.50
22025;BME280;11176;51.448;6.650;2023-03-24T09:33:45;45438.19;;;-141.29;75.80
22025;BME280;11176;51.448;6.650;2023-03-24T09:36:12;45426.22;;;-141.29;75.95
22025;BME280;11176;51.448;6.650;2023-03-24T09:38:38;45430.22;;;-141.29;73.77
22025;BME280;11176;51.448;6.650;2023-03-24T09:41:17;45426.22;;;-141.29;72.25
22025;BME280;11176;51.448;6.650;2023-03-24T09:43:59;45436.19;;;-141.29;72.75
22025;BME280;11176;51.448;6.650;2023-03-24T09:46:38;45428.22;;;-141.29;71.77
22025;BME280;11176;51.448;6.650;2023-03-24T09:49:11;45434.19;;;-141.29;73.33
22025;BME280;11176;51.448;6.650;2023-03-24T09:51:42;45444.19;;;-141.29;72.33
22025;BME280;11176;51.448;6.650;2023-03-24T09:54:30;45422.22;;;-141.29;73.20
22025;BME280;11176;51.448;6.650;2023-03-24T09:57:02;45442.19;;;-141.29;73.56
22025;BME280;11176;51.448;6.650;2023-03-24T09:59:37;45428.22;;;-141.29;71.06
22025;BME280;11176;51.448;6.650;2023-03-24T10:02:18;45428.22;;;-141.29;70.63
22025;BME280;11176;51.448;6.650;2023-03-24T10:04:46;45394.22;;;-141.29;69.34
22025;BME280;11176;51.448;6.650;2023-03-24T10:10:01;45406.22;;;-141.29;71.02
22025;BME280;11176;51.448;6.650;2023-03-24T10:12:38;45398.22;;;-141.29;69.91
22025;BME280;11176;51.448;6.650;2023-03-24T10:15:27;45410.22;;;-141.29;70.26
22025;BME280;11176;51.448;6.650;2023-03-24T10:20:46;45416.22;;;-141.29;69.58
22025;BME280;11176;51.448;6.650;2023-03-24T10:26:48;45406.22;;;-141.29;65.43
22025;BME280;11176;51.448;6.650;2023-03-24T10:29:28;45402.22;;;-141.29;64.67
22025;BME280;11176;51.448;6.650;2023-03-24T10:32:13;45378.25;;;-141.29;62.82
22025;BME280;11176;51.448;6.650;2023-03-24T10:34:41;45374.25;;;-141.29;62.68
22025;BME280;11176;51.448;6.650;2023-03-24T10:37:10;45374.25;;;-141.29;62.84
22025;BME280;11176;51.448;6.650;2023-03-24T10:39:39;45382.25;;;-141.29;64.33
22025;BME280;11176;51.448;6.650;2023-03-24T10:42:17;45380.25;;;-141.29;60.72
22025;BME280;11176;51.448;6.650;2023-03-24T10:44:48;45380.25;;;-141.29;61.32
22025;BME280;11176;51.448;6.650;2023-03-24T10:47:21;45390.25;;;-141.29;61.54
22025;BME280;11176;51.448;6.650;2023-03-24T10:49:57;45398.22;;;-141.29;60.74
22025;BME280;11176;51.448;6.650;2023-03-24T10:52:24;45392.22;;;-141.29;62.42
22025;BME280;11176;51.448;6.650;2023-03-24T10:54:53;45394.22;;;-141.29;62.87
22025;BME280;11176;51.448;6.650;2023-03-24T10:57:22;45378.25;;;-141.29;61.88
22025;BME280;11176;51.448;6.650;2023-03-24T10:59:53;45390.25;;;-141.29;63.21
22025;BME280;11176;51.448;6.650;2023-03-24T11:02:24;45398.22;;;-141.29;62.42
22025;BME280;11176;51.448;6.650;2023-03-24T11:04:56;45398.22;;;-141.29;61.88
22025;BME280;11176;51.448;6.650;2023-03-24T11:07:28;45374.25;;;-141.29;62.76
22025;BME280;11176;51.448;6.650;2023-03-24T11:12:40;45390.25;;;-141.29;61.99
22025;BME280;11176;51.448;6.650;2023-03-24T11:17:57;45386.25;;;-141.29;59.87
22025;BME280;11176;51.448;6.650;2023-03-24T11:20:31;45386.25;;;-141.29;59.50
22025;BME280;11176;51.448;6.650;2023-03-24T11:23:20;45394.22;;;-141.29;58.69
22025;BME280;11176;51.448;6.650;2023-03-24T11:25:49;45356.25;;;-141.29;57.23
22025;BME280;11176;51.448;6.650;2023-03-24T11:28:23;45376.25;;;-141.29;57.10
22025;BME280;11176;51.448;6.650;2023-03-24T11:30:53;45390.25;;;-141.29;57.38
22025;BME280;11176;51.448;6.650;2023-03-24T11:33:29;45394.22;;;-141.29;58.01
22025;BME280;11176;51.448;6.650;2023-03-24T11:36:13;45374.25;;;-141.29;58.93
22025;BME280;11176;51.448;6.650;2023-03-24T11:39:15;45362.25;;;-141.29;58.36
22025;BME280;11176;51.448;6.650;2023-03-24T11:41:51;45370.25;;;-141.29;58.63
22025;BME280;11176;51.448;6.650;2023-03-24T11:44:23;45382.25;;;-141.29;57.86
22025;BME280;11176;51.448;6.650;2023-03-24T11:46:54;45378.25;;;-141.29;58.79
22025;BME280;11176;51.448;6.650;2023-03-24T11:49:25;45374.25;;;-141.29;58.18
22025;BME280;11176;51.448;6.650;2023-03-24T11:51:53;45366.25;;;-141.29;58.28
22025;BME280;11176;51.448;6.650;2023-03-24T11:54:25;45370.25;;;-141.29;58.77
22025;BME280;11176;51.448;6.650;2023-03-24T11:56:58;45376.25;;;-141.29;59.95
22025;BME280;11176;51.448;6.650;2023-03-24T11:59:36;45386.25;;;-141.29;60.40
22025;BME280;11176;51.448;6.650;2023-03-24T12:05:35;45356.25;;;-141.29;58.05
22025;BME280;11176;51.448;6.650;2023-03-24T12:08:31;45366.25;;;-141.29;58.56
22025;BME280;11176;51.448;6.650;2023-03-24T12:11:07;45374.25;;;-141.29;60.32
22025;BME280;11176;51.448;6.650;2023-03-24T12:13:48;45364.25;;;-141.29;57.55
22025;BME280;11176;51.448;6.650;2023-03-24T12:27:43;45338.28;;;-141.29;52.86
22025;BME280;11176;51.448;6.650;2023-03-24T12:30:45;45318.28;;;-141.29;53.33
22025;BME280;11176;51.448;6.650;2023-03-24T12:33:23;45316.28;;;-141.29;48.95
22025;BME280;11176;51.448;6.650;2023-03-24T12:36:32;45302.31;;;-141.29;46.59
22025;BME280;11176;51.448;6.650;2023-03-24T12:39:11;45298.31;;;-141.29;47.33
22025;BME280;11176;51.448;6.650;2023-03-24T12:47:36;45294.31;;;-141.29;44.52
22025;BME280;11176;51.448;6.650;2023-03-24T12:55:45;45314.28;;;-141.29;46.53
22025;BME280;11176;51.448;6.650;2023-03-24T13:01:19;45306.31;;;-141.29;46.42
22025;BME280;11176;51.448;6.650;2023-03-24T13:06:37;45334.28;;;-141.29;46.99
22025;BME280;11176;51.448;6.650;2023-03-24T13:12:11;45326.28;;;-141.29;51.56
22025;BME280;11176;51.448;6.650;2023-03-24T13:15:00;45344.28;;;-141.29;60.35
22025;BME280;11176;51.448;6.650;2023-03-24T13:17:37;45360.25;;;-141.29;60.59
22025;BME280;11176;51.448;6.650;2023-03-24T13:20:12;45354.25;;;-141.29;62.39
22025;BME280;11176;51.448;6.650;2023-03-24T13:22:39;45374.25;;;-141.29;68.16
22025;BME280;11176;51.448;6.650;2023-03-24T13:25:21;45384.25;;;-141.29;71.60
22025;BME280;11176;51.448;6.650;2023-03-24T13:27:53;45366.25;;;-141.29;71.85
22025;BME280;11176;51.448;6.650;2023-03-24T13:30:36;45366.25;;;-141.29;71.93
22025;BME280;11176;51.448;6.650;2023-03-24T13:33:14;45366.25;;;-141.29;69.80
22025;BME280;11176;51.448;6.650;2023-03-24T13:38:40;45366.25;;;-141.29;66.28
22025;BME280;11176;51.448;6.650;2023-03-24T13:41:20;45346.28;;;-141.29;65.71
22025;BME280;11176;51.448;6.650;2023-03-24T13:43:56;45362.25;;;-141.29;62.40
22025;BME280;11176;51.448;6.650;2023-03-24T13:46:24;45354.25;;;-141.29;62.17
22025;BME280;11176;51.448;6.650;2023-03-24T13:48:53;45336.28;;;-141.29;61.02
22025;BME280;11176;51.448;6.650;2023-03-24T13:51:33;45344.28;;;-141.29;59.36
22025;BME280;11176;51.448;6.650;2023-03-24T13:56:46;45346.28;;;-141.29;61.37
22025;BME280;11176;51.448;6.650;2023-03-24T14:05:01;45386.25;;;-141.29;68.34
22025;BME280;11176;51.448;6.650;2023-03-24T14:21:01;45370.25;;;-141.29;89.65
22025;BME280;11176;51.448;6.650;2023-03-24T14:23:41;45392.22;;;-141.29;87.10
22025;BME280;11176;51.448;6.650;2023-03-24T14:28:52;45362.25;;;-141.29;80.93
22025;BME280;11176;51.448;6.650;2023-03-24T14:31:21;45382.25;;;-141.29;78.61
22025;BME280;11176;51.448;6.650;2023-03-24T14:36:29;45370.25;;;-141.29;80.30
22025;BME280;11176;51.448;6.650;2023-03-24T14:39:19;45360.25;;;-141.29;78.71
22025;BME280;11176;51.448;6.650;2023-03-24T14:41:48;45346.28;;;-141.29;77.44
22025;BME280;11176;51.448;6.650;2023-03-24T14:47:19;45338.28;;;-141.29;73.69
22025;BME280;11176;51.448;6.650;2023-03-24T14:49:49;45362.25;;;-141.29;73.38
22025;BME280;11176;51.448;6.650;2023-03-24T14:52:33;45356.25;;;-141.29;71.89
22025;BME280;11176;51.448;6.650;2023-03-24T14:55:08;45378.25;;;-141.29;71.30
22025;BME280;11176;51.448;6.650;2023-03-24T14:57:52;45362.25;;;-141.29;71.77
22025;BME280;11176;51.448;6.650;2023-03-24T15:00:24;45352.28;;;-141.29;71.89
22025;BME280;11176;51.448;6.650;2023-03-24T15:02:58;45356.25;;;-141.29;72.36
22025;BME280;11176;51.448;6.650;2023-03-24T15:08:16;45370.25;;;-141.29;72.22
22025;BME280;11176;51.448;6.650;2023-03-24T15:10:50;45374.25;;;-141.29;71.98
22025;BME280;11176;51.448;6.650;2023-03-24T15:13:54;45376.25;;;-141.29;72.32
22025;BME280;11176;51.448;6.650;2023-03-24T15:16:25;45356.25;;;-141.29;73.66